Time;durP1;ratioP1;P1;durP2;ratioP2;P2;SDS_P1;SDS_P2;PMS_P1;PMS_P2;Temp;Humidity;BMP_temperature;BMP_pressure;BME280_temperature;BME280_humidity;BME280_pressure;Samples;Min_cycle;Max_cycle;Signal;HPM_P1;HPM_P2
2024/04/01 00:14:07;;;;;;;0.00;0.00;;;;;;;;;;31357004;28;20623;-79
2024/04/01 00:29:17;;;;;;;0.00;0.00;;;;;;;;;;31356805;28;20734;-78
2024/04/01 00:44:21;;;;;;;0.00;0.00;;;;;;;;;;31339656;28;20235;-77
2024/04/01 00:59:25;;;;;;;0.00;0.00;;;;;;;;;;31341726;28;20250;-79
2024/04/01 01:14:28;;;;;;;0.00;0.00;;;;;;;;;;31329890;28;20243;-79
2024/04/01 01:29:38;;;;;;;0.00;0.00;;;;;;;;;;31339323;28;20234;-78
2024/04/01 01:44:41;;;;;;;0.00;0.00;;;;;;;;;;31320732;28;20230;-80
2024/04/01 01:59:45;;;;;;;0.00;0.00;;;;;;;;;;31332774;28;20226;-78
2024/04/01 02:14:48;;;;;;;0.00;0.00;;;;;;;;;;31330959;28;20242;-78
2024/04/01 02:29:58;;;;;;;0.00;0.00;;;;;;;;;;31353376;28;20231;-78
2024/04/01 02:45:03;;;;;;;0.00;0.00;;;;;;;;;;31330483;28;20231;-79
2024/04/01 03:00:10;;;;;;;0.00;0.00;;;;;;;;;;31333798;28;20231;-78
2024/04/01 03:15:18;;;;;;;0.00;0.00;;;;;;;;;;31338222;28;20266;-78
2024/04/01 03:30:28;;;;;;;0.00;0.00;;;;;;;;;;31342881;28;20246;-78
2024/04/01 03:45:32;;;;;;;0.00;0.00;;;;;;;;;;31335767;28;20234;-78
2024/04/01 04:00:35;;;;;;;0.00;0.00;;;;;;;;;;31335263;28;20226;-78
2024/04/01 04:15:38;;;;;;;0.00;0.00;;;;;;;;;;31327424;28;20685;-78
2024/04/01 04:30:48;;;;;;;0.00;0.00;;;;;;;;;;31320995;28;20568;-79
2024/04/01 04:45:52;;;;;;;0.00;0.00;;;;;;;;;;31316785;28;20238;-78
2024/04/01 05:00:55;;;;;;;0.00;0.00;;;;;;;;;;31214874;28;20240;-78
2024/04/01 05:15:59;;;;;;;0.00;0.00;;;;;;;;;;31211183;28;20746;-79
2024/04/01 05:31:08;;;;;;;0.00;0.00;;;;;;;;;;31215854;28;20242;-78
2024/04/01 05:46:12;;;;;;;0.00;0.00;;;;;;;;;;31202691;28;20234;-76
2024/04/01 06:01:15;;;;;;;0.00;0.00;;;;;;;;;;31218000;28;20852;-76
2024/04/01 06:16:18;;;;;;;0.00;0.00;;;;;;;;;;31200313;28;20709;-77
2024/04/01 06:31:28;;;;;;;0.00;0.00;;;;;;;;;;31197194;28;20582;-77
2024/04/01 06:46:32;;;;;;;0.00;0.00;;;;;;;;;;31196490;28;20239;-77
2024/04/01 07:01:36;;;;;;;0.00;0.00;;;;;;;;;;31212807;28;20223;-77
2024/04/01 07:16:39;;;;;;;0.00;0.00;;;;;;;;;;31211743;28;20232;-77
2024/04/01 07:31:49;;;;;;;0.00;0.00;;;;;;;;;;31190891;28;20347;-77
2024/04/01 07:46:53;;;;;;;0.00;0.00;;;;;;;;;;31235431;28;20743;-80
2024/04/01 08:01:57;;;;;;;0.00;0.00;;;;;;;;;;31329144;28;20674;-78
2024/04/01 08:17:00;;;;;;;0.10;0.10;;;;;;;;;;31349647;28;20250;-77
2024/04/01 08:32:10;;;;;;;0.00;0.00;;;;;;;;;;31332586;28;20238;-77
2024/04/01 08:47:13;;;;;;;0.00;0.00;;;;;;;;;;31313736;28;20242;-78
2024/04/01 09:02:16;;;;;;;0.00;0.00;;;;;;;;;;31249707;28;20326;-79
2024/04/01 09:17:28;;;;;;;0.00;0.00;;;;;;;;;;31331216;28;20251;-77
2024/04/01 09:32:38;;;;;;;0.00;0.00;;;;;;;;;;31311810;28;20276;-79
2024/04/01 09:47:42;;;;;;;0.00;0.00;;;;;;;;;;31323375;28;20239;-79
2024/04/01 10:03:06;;;;;;;0.00;0.00;;;;;;;;;;31217169;28;20296;-79
2024/04/01 10:18:15;;;;;;;0.00;0.00;;;;;;;;;;31202696;28;20228;-79
2024/04/01 10:33:44;;;;;;;0.00;0.00;;;;;;;;;;31200070;28;20664;-77
2024/04/01 10:48:58;;;;;;;0.00;0.00;;;;;;;;;;31232302;28;20238;-80
2024/04/01 11:04:22;;;;;;;0.00;0.00;;;;;;;;;;31236531;28;20243;-78
2024/04/01 11:19:35;;;;;;;0.00;0.00;;;;;;;;;;31161451;28;20231;-78
2024/04/01 11:34:50;;;;;;;0.00;0.00;;;;;;;;;;31211456;28;20242;-78
2024/04/01 11:49:53;;;;;;;0.00;0.00;;;;;;;;;;31195453;28;20570;-78
2024/04/01 12:05:03;;;;;;;0.00;0.00;;;;;;;;;;31237653;28;20227;-80
2024/04/01 12:20:07;;;;;;;0.00;0.00;;;;;;;;;;31210950;28;20738;-79
2024/04/01 12:35:19;;;;;;;0.00;0.00;;;;;;;;;;31175073;28;20232;-78
2024/04/01 12:50:22;;;;;;;0.00;0.00;;;;;;;;;;31206553;28;20236;-78
2024/04/01 13:05:30;;;;;;;0.00;0.00;;;;;;;;;;31155494;28;20243;-80
2024/04/01 13:20:38;;;;;;;0.00;0.00;;;;;;;;;;31219133;28;20239;-79
2024/04/01 13:36:01;;;;;;;0.00;0.00;;;;;;;;;;31216605;28;20999;-78
2024/04/01 13:51:10;;;;;;;0.00;0.00;;;;;;;;;;31221097;28;20227;-80
2024/04/01 14:06:20;;;;;;;0.00;0.00;;;;;;;;;;31207676;28;20246;-78
2024/04/01 14:21:24;;;;;;;0.00;0.00;;;;;;;;;;31229217;28;20246;-77
2024/04/01 14:36:34;;;;;;;0.00;0.00;;;;;;;;;;31222232;28;20239;-78
2024/04/01 14:51:38;;;;;;;0.00;0.00;;;;;;;;;;31240164;28;20235;-78
2024/04/01 15:06:42;;;;;;;0.00;0.00;;;;;;;;;;31249237;28;20254;-79
2024/04/01 15:21:46;;;;;;;0.00;0.00;;;;;;;;;;31245555;28;20259;-78
2024/04/01 15:36:56;;;;;;;0.00;0.00;;;;;;;;;;31242685;28;20227;-78
2024/04/01 15:52:00;;;;;;;0.00;0.00;;;;;;;;;;31257079;28;20781;-79
2024/04/01 16:07:03;;;;;;;0.00;0.00;;;;;;;;;;31335034;28;20238;-79
2024/04/01 16:22:11;;;;;;;0.00;0.00;;;;;;;;;;31339284;28;20234;-79
2024/04/01 16:37:21;;;;;;;0.00;0.00;;;;;;;;;;31326681;28;20226;-78
2024/04/01 16:52:25;;;;;;;0.00;0.00;;;;;;;;;;31285970;28;20235;-76
2024/04/01 17:07:28;;;;;;;0.00;0.00;;;;;;;;;;31197877;28;20227;-76
2024/04/01 17:22:32;;;;;;;0.00;0.00;;;;;;;;;;31191688;28;20246;-76
2024/04/01 17:37:41;;;;;;;0.00;0.00;;;;;;;;;;31205430;28;20857;-75
2024/04/01 17:52:45;;;;;;;0.00;0.00;;;;;;;;;;31198169;28;20223;-76
2024/04/01 18:07:50;;;;;;;0.00;0.00;;;;;;;;;;31199729;28;20274;-76
2024/04/01 18:22:54;;;;;;;0.00;0.00;;;;;;;;;;31197099;28;20717;-76
2024/04/01 18:38:04;;;;;;;0.00;0.00;;;;;;;;;;31197998;28;20619;-76
2024/04/01 18:53:08;;;;;;;0.00;0.00;;;;;;;;;;31249250;28;20234;-76
2024/04/01 19:08:11;;;;;;;0.00;0.00;;;;;;;;;;31333691;28;20672;-76
2024/04/01 19:23:14;;;;;;;0.00;0.00;;;;;;;;;;31330412;28;20700;-76
2024/04/01 19:38:24;;;;;;;0.00;0.00;;;;;;;;;;31322247;28;20720;-77
2024/04/01 19:53:28;;;;;;;0.00;0.00;;;;;;;;;;31328154;28;20237;-76
2024/04/01 20:08:31;;;;;;;0.00;0.00;;;;;;;;;;31286308;28;20236;-76
2024/04/01 20:23:35;;;;;;;0.00;0.00;;;;;;;;;;31307879;28;20242;-76
2024/04/01 20:38:44;;;;;;;0.00;0.00;;;;;;;;;;31324519;28;20241;-76
2024/04/01 20:53:48;;;;;;;0.00;0.00;;;;;;;;;;31316673;28;20222;-76
2024/04/01 21:08:51;;;;;;;0.00;0.00;;;;;;;;;;31301237;28;20237;-76
2024/04/01 21:23:55;;;;;;;0.00;0.00;;;;;;;;;;31321217;28;20277;-75
2024/04/01 21:39:04;;;;;;;0.00;0.00;;;;;;;;;;31321108;28;20688;-75
2024/04/01 21:54:08;;;;;;;0.00;0.00;;;;;;;;;;31311535;28;20246;-77
2024/04/01 22:09:11;;;;;;;0.00;0.00;;;;;;;;;;31335251;28;20254;-76
2024/04/01 22:24:15;;;;;;;0.00;0.00;;;;;;;;;;31313760;28;20242;-76
2024/04/01 22:39:24;;;;;;;0.00;0.00;;;;;;;;;;31341180;28;20235;-77
2024/04/01 22:54:30;;;;;;;0.00;0.00;;;;;;;;;;31298631;28;20231;-77
2024/04/01 23:09:33;;;;;;;0.00;0.00;;;;;;;;;;31215331;28;20235;-76
2024/04/01 23:24:36;;;;;;;0.00;0.00;;;;;;;;;;31187643;28;20228;-77
2024/04/01 23:39:46;;;;;;;0.00;0.00;;;;;;;;;;31202363;28;20678;-77
2024/04/01 23:54:50;;;;;;;0.00;0.00;;;;;;;;;;31247027;28;20230;-77
